createdAt,value
2023-05-22T00:02:08.126Z,63.20
2023-05-22T00:04:34.407Z,63.20
2023-05-22T00:07:00.551Z,63.24
2023-05-22T00:09:26.726Z,63.18
2023-05-22T00:11:52.932Z,63.34
2023-05-22T00:14:19.080Z,63.33
2023-05-22T00:16:45.377Z,63.14
2023-05-22T00:19:11.613Z,63.21
2023-05-22T00:21:37.847Z,63.29
2023-05-22T00:24:04.009Z,63.21
2023-05-22T00:26:30.145Z,63.18
2023-05-22T00:28:56.285Z,63.15
2023-05-22T00:31:22.446Z,63.27
2023-05-22T00:33:48.638Z,63.15
2023-05-22T00:36:14.810Z,63.36
2023-05-22T00:38:40.962Z,63.17
2023-05-22T00:41:07.106Z,63.46
2023-05-22T00:43:33.256Z,63.22
2023-05-22T00:45:59.416Z,63.16
2023-05-22T00:48:25.547Z,63.24
2023-05-22T00:50:51.705Z,63.17
2023-05-22T00:53:17.934Z,63.35
2023-05-22T00:55:44.076Z,63.08
2023-05-22T00:58:10.207Z,63.31
2023-05-22T01:00:36.463Z,63.17
2023-05-22T01:03:02.889Z,63.27
2023-05-22T01:05:29.090Z,63.24
2023-05-22T01:07:55.243Z,63.33
2023-05-22T01:10:21.382Z,63.25
2023-05-22T01:12:47.520Z,63.18
2023-05-22T01:15:13.666Z,63.16
2023-05-22T01:17:39.829Z,63.29
2023-05-22T01:20:05.997Z,63.22
2023-05-22T01:22:32.189Z,63.15
2023-05-22T01:24:58.341Z,63.24
2023-05-22T01:27:24.479Z,63.11
2023-05-22T01:29:50.642Z,63.30
2023-05-22T01:32:16.814Z,63.12
2023-05-22T01:34:42.973Z,63.34
2023-05-22T01:37:09.147Z,63.12
2023-05-22T01:39:35.316Z,63.23
2023-05-22T01:42:01.461Z,63.07
2023-05-22T01:44:27.627Z,63.32
2023-05-22T01:46:53.801Z,63.26
2023-05-22T01:49:19.948Z,63.31
2023-05-22T01:51:46.122Z,63.32
2023-05-22T01:54:12.241Z,63.16
2023-05-22T01:56:38.365Z,63.29
2023-05-22T01:59:04.911Z,63.24
2023-05-22T02:01:31.084Z,63.29
2023-05-22T02:03:57.247Z,63.29
2023-05-22T02:06:23.415Z,63.28
2023-05-22T02:08:49.549Z,63.25
2023-05-22T02:11:15.698Z,63.17
2023-05-22T02:13:41.859Z,63.19
2023-05-22T02:16:08.033Z,63.27
2023-05-22T02:18:34.195Z,63.29
2023-05-22T02:21:00.357Z,63.29
2023-05-22T02:23:26.622Z,63.12
2023-05-22T02:25:52.773Z,63.24
2023-05-22T02:28:18.934Z,63.28
2023-05-22T02:30:45.068Z,63.19
2023-05-22T02:33:11.309Z,63.31
2023-05-22T02:35:37.567Z,63.21
2023-05-22T02:38:03.731Z,63.14
2023-05-22T02:40:29.885Z,63.30
2023-05-22T02:42:56.056Z,63.19
2023-05-22T02:45:22.193Z,63.21
2023-05-22T02:47:48.359Z,63.30
2023-05-22T02:50:14.573Z,63.15
2023-05-22T02:52:40.722Z,63.20
2023-05-22T02:55:06.862Z,63.29
2023-05-22T02:57:33.018Z,63.26
2023-05-22T02:59:59.146Z,63.28
2023-05-22T03:02:25.293Z,63.21
2023-05-22T03:04:51.720Z,63.24
2023-05-22T03:07:17.862Z,63.15
2023-05-22T03:09:43.989Z,63.04
2023-05-22T03:12:10.446Z,63.09
2023-05-22T03:14:36.925Z,63.26
2023-05-22T03:17:03.169Z,63.11
2023-05-22T03:19:29.757Z,63.15
2023-05-22T03:21:55.969Z,63.24
2023-05-22T03:24:22.116Z,63.22
2023-05-22T03:26:48.367Z,63.13
2023-05-22T03:29:14.573Z,63.12
2023-05-22T03:31:40.747Z,63.21
2023-05-22T03:34:06.964Z,63.17
2023-05-22T03:36:33.182Z,63.12
2023-05-22T03:38:59.325Z,63.07
2023-05-22T03:41:25.516Z,63.22
2023-05-22T03:43:51.650Z,63.14
2023-05-22T03:46:17.884Z,63.20
2023-05-22T03:48:44.084Z,63.21
2023-05-22T03:51:10.251Z,63.20
2023-05-22T03:53:36.385Z,63.25
2023-05-22T03:56:02.536Z,63.20
2023-05-22T03:58:28.684Z,63.10
2023-05-22T04:00:54.858Z,63.15
2023-05-22T04:03:21.200Z,63.23
2023-05-22T04:05:47.426Z,63.13
2023-05-22T04:08:13.576Z,63.20
2023-05-22T04:10:39.964Z,63.12
2023-05-22T04:13:06.401Z,63.25
2023-05-22T04:15:32.634Z,63.13
2023-05-22T04:17:58.869Z,63.09
2023-05-22T04:20:25.073Z,62.98
2023-05-22T04:22:51.278Z,63.25
2023-05-22T04:25:17.436Z,63.25
2023-05-22T04:27:43.565Z,63.13
2023-05-22T04:30:09.726Z,63.05
2023-05-22T04:32:35.928Z,63.16
2023-05-22T04:35:02.128Z,63.14
2023-05-22T04:37:28.277Z,63.18
2023-05-22T04:39:54.462Z,63.19
2023-05-22T04:42:20.605Z,63.16
2023-05-22T04:44:46.766Z,63.16
2023-05-22T04:47:12.986Z,63.13
2023-05-22T04:49:39.209Z,63.11
2023-05-22T04:52:05.362Z,63.19
2023-05-22T04:54:31.519Z,63.14
2023-05-22T04:56:57.647Z,63.21
2023-05-22T04:59:23.783Z,63.07
2023-05-22T05:01:49.948Z,63.14
2023-05-22T05:04:16.081Z,63.12
2023-05-22T05:06:42.233Z,63.21
2023-05-22T05:09:08.409Z,63.04
2023-05-22T05:11:34.553Z,63.27
2023-05-22T05:14:00.715Z,63.05
2023-05-22T05:16:26.938Z,63.21
2023-05-22T05:18:53.170Z,63.17
2023-05-22T05:21:19.330Z,63.15
2023-05-22T05:23:45.498Z,63.08
2023-05-22T05:26:11.623Z,63.10
2023-05-22T05:28:37.760Z,62.97
2023-05-22T05:31:03.912Z,63.03
2023-05-22T05:33:30.049Z,63.18
2023-05-22T05:35:56.233Z,63.26
2023-05-22T05:38:22.392Z,63.14
2023-05-22T05:40:48.525Z,63.08
2023-05-22T05:43:14.672Z,62.77
2023-05-22T05:45:41.079Z,63.08
2023-05-22T05:48:07.273Z,62.83
2023-05-22T05:50:33.423Z,63.09
2023-05-22T05:52:59.591Z,63.09
2023-05-22T05:55:25.719Z,63.09
2023-05-22T05:57:51.852Z,63.01
2023-05-22T06:00:18.368Z,63.05
2023-05-22T06:02:44.603Z,63.11
2023-05-22T06:05:10.893Z,63.03
2023-05-22T06:07:37.126Z,63.03
2023-05-22T06:10:03.299Z,63.01
2023-05-22T06:12:29.433Z,63.12
2023-05-22T06:14:55.592Z,63.03
2023-05-22T06:17:21.729Z,63.16
2023-05-22T06:19:47.868Z,63.03
2023-05-22T06:22:14.278Z,62.96
2023-05-22T06:24:40.428Z,62.96
2023-05-22T06:27:06.585Z,62.99
2023-05-22T06:29:32.752Z,63.07
2023-05-22T06:31:58.927Z,63.12
2023-05-22T06:34:25.183Z,63.04
2023-05-22T06:36:51.475Z,63.02
2023-05-22T06:39:17.629Z,62.96
2023-05-22T06:41:43.771Z,63.02
2023-05-22T06:44:09.957Z,63.00
2023-05-22T06:46:36.213Z,63.03
2023-05-22T06:49:02.435Z,63.03
2023-05-22T06:51:28.610Z,63.05
2023-05-22T06:53:54.756Z,63.03
2023-05-22T06:56:20.895Z,63.00
2023-05-22T06:58:47.073Z,63.08
2023-05-22T07:01:13.288Z,63.12
2023-05-22T07:03:39.444Z,63.00
2023-05-22T07:06:05.646Z,63.08
2023-05-22T07:08:31.816Z,63.09
2023-05-22T07:10:57.959Z,62.91
2023-05-22T07:13:24.117Z,63.08
2023-05-22T07:15:50.271Z,62.94
2023-05-22T07:18:16.403Z,63.08
2023-05-22T07:20:42.790Z,62.92
2023-05-22T07:23:09.036Z,63.05
2023-05-22T07:25:35.180Z,63.15
2023-05-22T07:28:01.365Z,62.96
2023-05-22T07:30:27.575Z,62.99
2023-05-22T07:32:53.848Z,62.90
2023-05-22T07:35:20.194Z,62.90
2023-05-22T07:37:46.330Z,63.06
2023-05-22T07:40:12.465Z,62.83
2023-05-22T07:42:38.635Z,63.00
2023-05-22T07:45:04.781Z,62.96
2023-05-22T07:47:31.009Z,63.13
2023-05-22T07:49:57.211Z,63.05
2023-05-22T07:52:23.340Z,63.09
2023-05-22T07:54:49.506Z,63.08
2023-05-22T07:57:15.702Z,62.74
2023-05-22T07:59:41.842Z,62.94
2023-05-22T08:02:08.111Z,62.90
2023-05-22T08:04:34.425Z,62.99
2023-05-22T08:07:00.653Z,63.03
2023-05-22T08:09:26.815Z,63.05
2023-05-22T08:11:53.059Z,63.06
2023-05-22T08:14:19.201Z,62.96
2023-05-22T08:16:45.392Z,62.96
2023-05-22T08:19:11.673Z,62.94
2023-05-22T08:21:37.982Z,63.04
2023-05-22T08:24:04.134Z,63.10
2023-05-22T08:26:32.093Z,62.88
2023-05-22T08:28:58.428Z,62.92
2023-05-22T08:31:24.584Z,62.89
2023-05-22T08:33:50.776Z,62.91
2023-05-22T08:36:16.919Z,62.97
2023-05-22T08:38:43.063Z,62.95
2023-05-22T08:41:09.234Z,62.96
2023-05-22T08:43:35.363Z,63.04
2023-05-22T08:46:01.516Z,63.01
2023-05-22T08:48:27.687Z,62.88
2023-05-22T08:50:53.852Z,62.87
2023-05-22T08:53:19.988Z,62.99
2023-05-22T08:55:46.155Z,62.87
2023-05-22T08:58:12.339Z,62.91
2023-05-22T09:00:38.726Z,63.04
2023-05-22T09:03:05.134Z,62.87
2023-05-22T09:05:31.328Z,62.83
2023-05-22T09:08:02.584Z,62.82
2023-05-22T09:10:34.978Z,62.94
2023-05-22T09:13:01.103Z,62.98
2023-05-22T09:15:27.260Z,62.98
2023-05-22T09:17:53.509Z,62.98
2023-05-22T09:20:19.711Z,63.01
2023-05-22T09:22:45.888Z,62.96
2023-05-22T09:25:12.063Z,62.92
2023-05-22T09:27:38.221Z,63.03
2023-05-22T09:30:04.380Z,62.91
2023-05-22T09:32:30.597Z,63.01
2023-05-22T09:34:56.832Z,63.05
2023-05-22T09:37:22.958Z,63.14
2023-05-22T09:39:49.248Z,62.93
2023-05-22T09:42:15.432Z,63.06
2023-05-22T09:44:41.595Z,63.03
2023-05-22T09:47:07.778Z,63.00
2023-05-22T09:49:33.919Z,63.16
2023-05-22T09:52:00.157Z,63.28
2023-05-22T09:54:26.321Z,62.99
2023-05-22T09:56:52.523Z,63.02
2023-05-22T09:59:18.662Z,62.91
2023-05-22T10:01:44.878Z,63.11
2023-05-22T10:04:11.089Z,62.92
2023-05-22T10:06:37.419Z,62.81
2023-05-22T10:09:03.572Z,62.89
2023-05-22T10:11:29.706Z,62.99
2023-05-22T10:13:55.871Z,62.83
2023-05-22T10:16:22.085Z,62.99
2023-05-22T10:18:48.321Z,63.02
2023-05-22T10:21:14.480Z,62.92
2023-05-22T10:23:40.646Z,62.90
2023-05-22T10:26:06.800Z,63.08
2023-05-22T10:28:32.952Z,62.98
2023-05-22T10:30:59.133Z,62.96
2023-05-22T10:33:25.294Z,62.92
2023-05-22T10:35:51.454Z,63.11
2023-05-22T10:38:18.441Z,62.95
2023-05-22T10:40:44.677Z,62.94
2023-05-22T10:43:11.021Z,63.01
2023-05-22T10:45:37.229Z,63.08
2023-05-22T10:48:03.388Z,63.13
2023-05-22T10:50:29.589Z,63.10
2023-05-22T10:52:55.767Z,63.10
2023-05-22T10:55:21.908Z,63.15
2023-05-22T10:57:48.094Z,63.07
2023-05-22T11:00:14.327Z,63.20
2023-05-22T11:02:40.590Z,63.15
2023-05-22T11:05:07.002Z,63.11
2023-05-22T11:07:33.289Z,63.13
2023-05-22T11:09:59.468Z,63.12
2023-05-22T11:12:25.699Z,63.18
2023-05-22T11:14:51.955Z,63.24
2023-05-22T11:17:18.124Z,63.25
2023-05-22T11:19:44.340Z,63.10
2023-05-22T11:22:10.598Z,63.08
2023-05-22T11:24:36.743Z,63.15
2023-05-22T11:27:02.905Z,63.29
2023-05-22T11:29:29.056Z,63.26
2023-05-22T11:31:55.248Z,63.29
2023-05-22T11:34:21.393Z,63.28
2023-05-22T11:36:47.571Z,63.13
2023-05-22T11:39:13.710Z,63.11
2023-05-22T11:41:39.854Z,63.12
2023-05-22T11:44:06.025Z,63.26
2023-05-22T11:46:32.318Z,63.20
2023-05-22T11:48:58.496Z,63.13
2023-05-22T11:51:24.671Z,63.13
2023-05-22T11:53:50.816Z,63.27
2023-05-22T11:56:16.953Z,63.25
2023-05-22T11:58:43.185Z,63.18
2023-05-22T12:01:09.342Z,63.26
2023-05-22T12:03:35.570Z,63.22
2023-05-22T12:06:01.858Z,63.25
2023-05-22T12:08:28.066Z,63.25
2023-05-22T12:10:54.216Z,63.31
2023-05-22T12:13:20.377Z,63.47
2023-05-22T12:15:46.553Z,63.51
2023-05-22T12:18:12.752Z,63.48
2023-05-22T12:20:39.171Z,63.55
2023-05-22T12:23:05.448Z,63.45
2023-05-22T12:25:31.612Z,63.46
2023-05-22T12:27:57.804Z,63.66
2023-05-22T12:30:23.948Z,63.65
2023-05-22T12:32:50.185Z,63.72
2023-05-22T12:35:16.425Z,63.58
2023-05-22T12:37:42.585Z,63.63
2023-05-22T12:40:08.781Z,63.78
2023-05-22T12:42:34.937Z,63.76
2023-05-22T12:45:01.112Z,63.67
2023-05-22T12:47:27.393Z,63.70
2023-05-22T12:49:53.677Z,63.74
2023-05-22T12:52:19.909Z,63.75
2023-05-22T12:54:46.126Z,63.86
2023-05-22T12:57:12.319Z,63.76
2023-05-22T12:59:38.558Z,63.75
2023-05-22T13:02:04.720Z,63.87
2023-05-22T13:04:30.978Z,63.85
2023-05-22T13:06:57.150Z,63.81
2023-05-22T13:09:23.331Z,63.99
2023-05-22T13:11:49.533Z,63.91
2023-05-22T13:14:15.697Z,63.97
2023-05-22T13:16:41.865Z,64.06
2023-05-22T13:19:08.154Z,63.92
2023-05-22T13:21:34.356Z,63.95
2023-05-22T13:24:00.512Z,63.97
2023-05-22T13:26:26.886Z,64.12
2023-05-22T13:28:53.108Z,64.05
2023-05-22T13:31:19.256Z,63.97
2023-05-22T13:33:45.447Z,63.92
2023-05-22T13:36:11.616Z,64.16
2023-05-22T13:38:37.836Z,64.01
2023-05-22T13:41:04.010Z,64.17
2023-05-22T13:43:30.154Z,64.09
2023-05-22T13:45:56.282Z,64.20
2023-05-22T13:48:22.459Z,64.07
2023-05-22T13:50:48.604Z,64.18
2023-05-22T13:53:14.741Z,64.13
2023-05-22T13:55:41.144Z,64.30
2023-05-22T13:58:07.542Z,64.35
2023-05-22T14:00:33.686Z,64.44
2023-05-22T14:02:59.931Z,64.22
2023-05-22T14:05:26.175Z,64.22
2023-05-22T14:07:52.312Z,64.38
2023-05-22T14:10:18.487Z,64.19
2023-05-22T14:12:44.627Z,64.32
2023-05-22T14:15:10.772Z,64.15
2023-05-22T14:17:36.941Z,64.08
2023-05-22T14:20:03.182Z,64.24
2023-05-22T14:22:29.345Z,64.31
2023-05-22T14:24:55.512Z,64.37
2023-05-22T14:27:21.694Z,64.27
2023-05-22T14:29:47.847Z,64.12
2023-05-22T14:32:13.993Z,64.23
2023-05-22T14:34:40.117Z,64.24
2023-05-22T14:37:06.293Z,64.31
2023-05-22T14:39:32.570Z,64.16
2023-05-22T14:41:58.714Z,64.16
2023-05-22T14:44:25.009Z,64.19
2023-05-22T14:46:51.394Z,64.24
2023-05-22T14:49:17.662Z,64.14
2023-05-22T14:51:43.808Z,64.14
2023-05-22T14:54:10.254Z,64.14
2023-05-22T14:56:36.433Z,64.20
2023-05-22T14:59:02.579Z,64.25
2023-05-22T15:01:28.772Z,64.11
2023-05-22T15:03:54.972Z,64.07
2023-05-22T15:06:21.137Z,64.21
2023-05-22T15:08:47.286Z,63.99
2023-05-22T15:11:13.538Z,64.16
2023-05-22T15:13:39.688Z,64.22
2023-05-22T15:16:05.926Z,64.13
2023-05-22T15:18:32.115Z,64.06
2023-05-22T15:20:58.414Z,64.21
2023-05-22T15:23:24.572Z,64.18
2023-05-22T15:25:50.721Z,64.17
2023-05-22T15:28:16.855Z,64.21
2023-05-22T15:30:43.419Z,64.16
2023-05-22T15:33:09.719Z,64.11
2023-05-22T15:35:35.895Z,64.13
2023-05-22T15:38:02.050Z,64.07
2023-05-22T15:40:28.178Z,64.10
2023-05-22T15:42:54.328Z,63.99
2023-05-22T15:45:20.714Z,64.13
2023-05-22T15:47:46.905Z,64.02
2023-05-22T15:50:13.097Z,64.18
2023-05-22T15:52:39.289Z,64.18
2023-05-22T15:55:05.443Z,64.11
2023-05-22T15:57:31.595Z,64.11
2023-05-22T15:59:57.770Z,64.15
2023-05-22T16:02:23.956Z,64.03
2023-05-22T16:04:50.140Z,64.12
2023-05-22T16:07:16.315Z,64.08
2023-05-22T16:09:42.469Z,64.14
2023-05-22T16:12:08.614Z,64.15
2023-05-22T16:14:34.783Z,64.19
2023-05-22T16:17:00.934Z,64.00
2023-05-22T16:19:30.314Z,64.14
2023-05-22T16:21:56.519Z,64.07
2023-05-22T16:24:22.662Z,64.04
2023-05-22T16:26:48.821Z,64.20
2023-05-22T16:29:15.060Z,64.05
2023-05-22T16:31:41.248Z,64.14
2023-05-22T16:34:07.423Z,64.03
2023-05-22T16:36:33.981Z,64.20
2023-05-22T16:39:00.165Z,64.18
2023-05-22T16:41:26.293Z,64.14
2023-05-22T16:43:52.453Z,64.13
2023-05-22T16:46:18.645Z,64.08
2023-05-22T16:48:44.844Z,64.13
2023-05-22T16:51:11.105Z,64.05
2023-05-22T16:53:38.570Z,64.03
2023-05-22T16:56:04.858Z,64.11
2023-05-22T16:58:31.031Z,64.13
2023-05-22T17:01:03.566Z,63.99
2023-05-22T17:03:29.835Z,64.13
2023-05-22T17:05:56.360Z,64.10
2023-05-22T17:08:22.488Z,64.08
2023-05-22T17:10:48.627Z,64.11
2023-05-22T17:13:14.779Z,64.04
2023-05-22T17:15:41.055Z,64.18
2023-05-22T17:18:07.471Z,64.08
2023-05-22T17:20:33.740Z,64.06
2023-05-22T17:22:59.977Z,64.14
2023-05-22T17:25:26.111Z,64.01
2023-05-22T17:27:52.292Z,64.05
2023-05-22T17:30:18.443Z,64.16
2023-05-22T17:32:44.605Z,64.20
2023-05-22T17:35:10.761Z,64.23
2023-05-22T17:37:36.911Z,64.20
2023-05-22T17:40:03.061Z,63.97
2023-05-22T17:42:29.273Z,64.22
2023-05-22T17:44:55.507Z,64.06
2023-05-22T17:47:21.928Z,64.28
2023-05-22T17:49:48.525Z,64.19
2023-05-22T17:52:15.136Z,64.23
2023-05-22T17:54:41.436Z,64.24
2023-05-22T17:57:07.853Z,64.17
2023-05-22T17:59:34.227Z,64.20
2023-05-22T18:02:00.588Z,64.16
2023-05-22T18:04:26.841Z,64.22
2023-05-22T18:06:53.062Z,63.96
2023-05-22T18:09:19.245Z,64.30
2023-05-22T18:11:45.508Z,64.21
2023-05-22T18:14:11.775Z,64.05
2023-05-22T18:16:38.257Z,64.28
2023-05-22T18:19:04.631Z,64.26
2023-05-22T18:21:30.818Z,64.28
2023-05-22T18:23:56.958Z,64.21
2023-05-22T18:26:23.119Z,64.14
2023-05-22T18:28:49.278Z,64.12
2023-05-22T18:31:15.452Z,64.24
2023-05-22T18:33:41.641Z,64.22
2023-05-22T18:36:07.770Z,64.20
2023-05-22T18:38:34.107Z,64.19
2023-05-22T18:41:00.411Z,64.24
2023-05-22T18:43:26.547Z,64.22
2023-05-22T18:45:52.852Z,64.22
2023-05-22T18:48:19.114Z,64.25
2023-05-22T18:50:45.448Z,64.28
2023-05-22T18:53:11.954Z,64.22
2023-05-22T18:55:38.368Z,64.26
2023-05-22T18:58:04.549Z,64.09
2023-05-22T19:00:30.872Z,64.09
2023-05-22T19:02:57.198Z,64.08
2023-05-22T19:05:23.371Z,64.25
2023-05-22T19:07:49.507Z,64.24
2023-05-22T19:10:15.730Z,64.31
2023-05-22T19:12:41.907Z,64.29
2023-05-22T19:15:08.038Z,64.17
2023-05-22T19:17:34.219Z,64.09
2023-05-22T19:20:00.379Z,64.27
2023-05-22T19:22:26.519Z,64.29
2023-05-22T19:24:52.695Z,64.24
2023-05-22T19:27:18.847Z,64.17
2023-05-22T19:29:45.020Z,64.26
2023-05-22T19:32:11.208Z,64.26
2023-05-22T19:34:37.373Z,64.26
2023-05-22T19:37:03.534Z,64.16
2023-05-22T19:39:29.726Z,64.28
2023-05-22T19:41:55.879Z,64.12
2023-05-22T19:44:22.035Z,64.27
2023-05-22T19:46:48.349Z,64.28
2023-05-22T19:49:14.622Z,64.44
2023-05-22T19:51:40.753Z,64.06
2023-05-22T19:54:06.910Z,64.12
2023-05-22T19:56:33.051Z,64.27
2023-05-22T19:58:59.221Z,64.33
2023-05-22T20:01:25.428Z,64.32
2023-05-22T20:03:51.771Z,64.31
2023-05-22T20:06:18.008Z,64.29
2023-05-22T20:08:44.192Z,64.20
2023-05-22T20:11:10.350Z,64.26
2023-05-22T20:13:36.491Z,64.23
2023-05-22T20:16:02.729Z,64.28
2023-05-22T20:18:28.886Z,64.33
2023-05-22T20:20:55.057Z,64.19
2023-05-22T20:23:21.239Z,64.26
2023-05-22T20:25:47.390Z,64.16
2023-05-22T20:28:13.572Z,64.20
2023-05-22T20:30:39.760Z,64.30
2023-05-22T20:33:05.938Z,64.29
2023-05-22T20:35:32.265Z,64.34
2023-05-22T20:37:58.462Z,64.16
2023-05-22T20:40:24.703Z,64.16
2023-05-22T20:42:50.960Z,64.31
2023-05-22T20:45:17.197Z,64.30
2023-05-22T20:47:43.465Z,64.28
2023-05-22T20:50:09.716Z,64.20
2023-05-22T20:52:35.892Z,64.24
2023-05-22T20:55:02.032Z,64.11
2023-05-22T20:57:28.180Z,64.25
2023-05-22T20:59:54.353Z,64.20
2023-05-22T21:02:20.515Z,64.29
2023-05-22T21:04:46.675Z,64.19
2023-05-22T21:07:13.451Z,64.28
2023-05-22T21:09:39.609Z,64.29
2023-05-22T21:12:05.754Z,64.16
2023-05-22T21:14:31.901Z,64.01
2023-05-22T21:16:58.074Z,64.29
2023-05-22T21:19:24.370Z,64.23
2023-05-22T21:21:50.572Z,64.28
2023-05-22T21:24:16.696Z,64.04
2023-05-22T21:26:42.836Z,64.22
2023-05-22T21:29:08.986Z,64.23
2023-05-22T21:31:35.796Z,64.24
2023-05-22T21:34:02.180Z,64.18
2023-05-22T21:36:28.332Z,64.29
2023-05-22T21:38:54.463Z,64.18
2023-05-22T21:41:20.599Z,64.45
2023-05-22T21:43:46.759Z,64.24
2023-05-22T21:46:12.921Z,64.29
2023-05-22T21:48:39.119Z,64.14
2023-05-22T21:51:05.409Z,64.29
2023-05-22T21:53:31.663Z,64.08
2023-05-22T21:55:57.784Z,64.14
2023-05-22T21:58:23.941Z,64.32
2023-05-22T22:00:50.121Z,64.31
2023-05-22T22:03:16.504Z,64.30
2023-05-22T22:05:42.743Z,64.30
2023-05-22T22:08:09.002Z,64.09
2023-05-22T22:10:35.299Z,64.18
2023-05-22T22:13:01.461Z,63.92
2023-05-22T22:15:27.597Z,64.26
2023-05-22T22:17:53.764Z,64.30
2023-05-22T22:20:24.759Z,64.33
2023-05-22T22:22:56.597Z,64.15
2023-05-22T22:25:22.745Z,64.29
2023-05-22T22:27:48.900Z,64.29
2023-05-22T22:30:15.053Z,64.34
2023-05-22T22:32:41.255Z,64.36
2023-05-22T22:35:07.403Z,64.34
2023-05-22T22:37:33.586Z,64.19
2023-05-22T22:39:59.763Z,64.28
2023-05-22T22:42:25.914Z,64.29
2023-05-22T22:44:52.052Z,64.17
2023-05-22T22:47:18.220Z,64.15
2023-05-22T22:49:44.355Z,64.11
2023-05-22T22:52:10.478Z,64.19
2023-05-22T22:54:36.867Z,64.20
2023-05-22T22:57:03.123Z,64.16
2023-05-22T22:59:29.262Z,64.35
2023-05-22T23:01:55.470Z,64.25
2023-05-22T23:04:21.781Z,64.29
2023-05-22T23:06:47.984Z,64.28
2023-05-22T23:09:14.151Z,64.30
2023-05-22T23:11:40.313Z,64.20
2023-05-22T23:14:06.459Z,64.31
2023-05-22T23:16:32.717Z,64.16
2023-05-22T23:18:58.961Z,64.14
2023-05-22T23:21:25.170Z,64.30
2023-05-22T23:23:51.361Z,64.41
2023-05-22T23:26:17.526Z,64.20
2023-05-22T23:28:43.990Z,64.37
2023-05-22T23:31:10.302Z,64.11
2023-05-22T23:33:36.462Z,64.29
2023-05-22T23:36:02.593Z,64.28
2023-05-22T23:38:28.755Z,64.24
2023-05-22T23:40:54.933Z,64.30
2023-05-22T23:43:21.099Z,64.17
2023-05-22T23:45:47.256Z,64.22
2023-05-22T23:48:13.394Z,64.15
2023-05-22T23:50:39.533Z,64.28
2023-05-22T23:53:05.713Z,64.38
2023-05-22T23:55:31.895Z,64.36
2023-05-22T23:57:58.099Z,64.27
